sensor_id;sensor_type;location;lat;lon;timestamp;temperature;humidity
23813;DHT22;12087;45.190;5.688;2023-10-31T00:03:12;12.00;99.90
23813;DHT22;12087;45.190;5.688;2023-10-31T00:08:34;12.00;99.90
23813;DHT22;12087;45.190;5.688;2023-10-31T00:13:56;12.00;99.90
23813;DHT22;12087;45.190;5.688;2023-10-31T00:19:20;11.90;99.90
23813;DHT22;12087;45.190;5.688;2023-10-31T00:24:42;11.90;99.90
23813;DHT22;12087;45.190;5.688;2023-10-31T00:30:06;11.90;99.90
23813;DHT22;12087;45.190;5.688;2023-10-31T00:35:29;11.90;99.90
23813;DHT22;12087;45.190;5.688;2023-10-31T00:40:52;11.90;99.90
23813;DHT22;12087;45.190;5.688;2023-10-31T00:46:14;11.90;99.90
23813;DHT22;12087;45.190;5.688;2023-10-31T00:51:38;12.00;99.90
23813;DHT22;12087;45.190;5.688;2023-10-31T00:57:00;12.00;99.90
23813;DHT22;12087;45.190;5.688;2023-10-31T01:02:22;11.90;99.90
23813;DHT22;12087;45.190;5.688;2023-10-31T01:07:45;11.90;99.90
23813;DHT22;12087;45.190;5.688;2023-10-31T01:13:08;11.90;99.90
23813;DHT22;12087;45.190;5.688;2023-10-31T01:18:30;11.80;99.90
23813;DHT22;12087;45.190;5.688;2023-10-31T01:23:53;11.80;99.90
23813;DHT22;12087;45.190;5.688;2023-10-31T01:29:15;11.90;99.90
23813;DHT22;12087;45.190;5.688;2023-10-31T01:34:37;11.80;99.90
23813;DHT22;12087;45.190;5.688;2023-10-31T01:40:02;11.80;99.90
23813;DHT22;12087;45.190;5.688;2023-10-31T01:45:24;11.70;99.90
23813;DHT22;12087;45.190;5.688;2023-10-31T01:50:46;11.70;99.90
23813;DHT22;12087;45.190;5.688;2023-10-31T01:56:10;11.70;99.90
23813;DHT22;12087;45.190;5.688;2023-10-31T02:01:34;11.80;99.90
23813;DHT22;12087;45.190;5.688;2023-10-31T02:06:57;11.70;99.90
23813;DHT22;12087;45.190;5.688;2023-10-31T02:12:36;11.80;99.90
23813;DHT22;12087;45.190;5.688;2023-10-31T02:17:59;11.80;99.90
23813;DHT22;12087;45.190;5.688;2023-10-31T02:23:22;11.80;99.90
23813;DHT22;12087;45.190;5.688;2023-10-31T02:28:46;11.80;99.90
23813;DHT22;12087;45.190;5.688;2023-10-31T02:34:08;11.80;99.90
23813;DHT22;12087;45.190;5.688;2023-10-31T02:39:31;11.80;99.90
23813;DHT22;12087;45.190;5.688;2023-10-31T02:44:54;11.80;99.90
23813;DHT22;12087;45.190;5.688;2023-10-31T02:50:16;11.80;99.90
23813;DHT22;12087;45.190;5.688;2023-10-31T02:55:39;11.80;99.90
23813;DHT22;12087;45.190;5.688;2023-10-31T03:01:02;11.70;99.90
23813;DHT22;12087;45.190;5.688;2023-10-31T03:06:24;11.70;99.90
23813;DHT22;12087;45.190;5.688;2023-10-31T03:11:47;11.80;99.90
23813;DHT22;12087;45.190;5.688;2023-10-31T03:17:10;11.80;99.90
23813;DHT22;12087;45.190;5.688;2023-10-31T03:22:32;11.80;99.90
23813;DHT22;12087;45.190;5.688;2023-10-31T03:27:55;11.70;99.90
23813;DHT22;12087;45.190;5.688;2023-10-31T03:33:17;11.70;99.90
23813;DHT22;12087;45.190;5.688;2023-10-31T03:38:40;11.70;99.90
23813;DHT22;12087;45.190;5.688;2023-10-31T03:44:04;11.60;99.90
23813;DHT22;12087;45.190;5.688;2023-10-31T03:49:26;11.60;99.90
23813;DHT22;12087;45.190;5.688;2023-10-31T03:54:48;11.60;99.90
23813;DHT22;12087;45.190;5.688;2023-10-31T04:00:13;11.50;99.90
23813;DHT22;12087;45.190;5.688;2023-10-31T04:05:35;11.60;99.90
23813;DHT22;12087;45.190;5.688;2023-10-31T04:10:58;11.60;99.90
23813;DHT22;12087;45.190;5.688;2023-10-31T04:16:21;11.60;99.90
23813;DHT22;12087;45.190;5.688;2023-10-31T04:21:44;11.60;99.90
23813;DHT22;12087;45.190;5.688;2023-10-31T04:27:06;11.70;99.90
23813;DHT22;12087;45.190;5.688;2023-10-31T04:32:29;11.70;99.90
23813;DHT22;12087;45.190;5.688;2023-10-31T04:37:51;11.70;99.90
23813;DHT22;12087;45.190;5.688;2023-10-31T04:43:14;11.80;99.90
23813;DHT22;12087;45.190;5.688;2023-10-31T04:48:37;11.80;99.90
23813;DHT22;12087;45.190;5.688;2023-10-31T04:53:59;11.80;99.90
23813;DHT22;12087;45.190;5.688;2023-10-31T04:59:21;11.80;99.90
23813;DHT22;12087;45.190;5.688;2023-10-31T05:04:45;11.70;99.90
23813;DHT22;12087;45.190;5.688;2023-10-31T05:10:11;11.70;99.90
23813;DHT22;12087;45.190;5.688;2023-10-31T05:15:33;11.70;99.90
23813;DHT22;12087;45.190;5.688;2023-10-31T05:20:57;11.70;99.90
23813;DHT22;12087;45.190;5.688;2023-10-31T05:26:19;11.60;99.90
23813;DHT22;12087;45.190;5.688;2023-10-31T05:31:41;11.60;99.90
23813;DHT22;12087;45.190;5.688;2023-10-31T05:37:05;11.60;99.90
23813;DHT22;12087;45.190;5.688;2023-10-31T05:42:28;11.50;99.90
23813;DHT22;12087;45.190;5.688;2023-10-31T05:47:50;11.60;99.90
23813;DHT22;12087;45.190;5.688;2023-10-31T05:53:13;11.60;99.90
23813;DHT22;12087;45.190;5.688;2023-10-31T05:58:37;11.60;99.90
23813;DHT22;12087;45.190;5.688;2023-10-31T06:03:59;11.60;99.90
23813;DHT22;12087;45.190;5.688;2023-10-31T06:09:23;11.60;99.90
23813;DHT22;12087;45.190;5.688;2023-10-31T06:14:45;11.60;99.90
23813;DHT22;12087;45.190;5.688;2023-10-31T06:20:08;11.60;99.90
23813;DHT22;12087;45.190;5.688;2023-10-31T06:25:32;11.60;99.90
23813;DHT22;12087;45.190;5.688;2023-10-31T06:30:54;11.60;99.90
23813;DHT22;12087;45.190;5.688;2023-10-31T06:36:16;11.60;99.90
23813;DHT22;12087;45.190;5.688;2023-10-31T06:41:40;11.60;99.90
23813;DHT22;12087;45.190;5.688;2023-10-31T06:47:03;11.60;99.90
23813;DHT22;12087;45.190;5.688;2023-10-31T06:52:25;11.60;99.90
23813;DHT22;12087;45.190;5.688;2023-10-31T06:57:49;11.50;99.90
23813;DHT22;12087;45.190;5.688;2023-10-31T07:03:11;11.50;99.90
23813;DHT22;12087;45.190;5.688;2023-10-31T07:08:36;11.50;99.90
23813;DHT22;12087;45.190;5.688;2023-10-31T07:14:00;11.60;99.90
23813;DHT22;12087;45.190;5.688;2023-10-31T07:19:22;11.60;99.90
23813;DHT22;12087;45.190;5.688;2023-10-31T07:24:44;11.60;99.90
23813;DHT22;12087;45.190;5.688;2023-10-31T07:30:09;11.70;99.90
23813;DHT22;12087;45.190;5.688;2023-10-31T07:35:31;11.60;99.90
23813;DHT22;12087;45.190;5.688;2023-10-31T07:40:54;11.60;99.90
23813;DHT22;12087;45.190;5.688;2023-10-31T07:46:17;11.70;99.90
23813;DHT22;12087;45.190;5.688;2023-10-31T07:51:40;11.70;99.90
23813;DHT22;12087;45.190;5.688;2023-10-31T07:57:03;11.80;99.90
23813;DHT22;12087;45.190;5.688;2023-10-31T08:02:27;11.80;99.90
23813;DHT22;12087;45.190;5.688;2023-10-31T08:07:49;11.80;99.90
23813;DHT22;12087;45.190;5.688;2023-10-31T08:13:11;11.80;99.90
23813;DHT22;12087;45.190;5.688;2023-10-31T08:18:35;11.80;99.90
23813;DHT22;12087;45.190;5.688;2023-10-31T08:23:57;11.80;99.90
23813;DHT22;12087;45.190;5.688;2023-10-31T08:29:20;11.70;99.90
23813;DHT22;12087;45.190;5.688;2023-10-31T08:34:43;11.80;99.90
23813;DHT22;12087;45.190;5.688;2023-10-31T08:40:07;11.80;99.90
23813;DHT22;12087;45.190;5.688;2023-10-31T08:45:29;11.80;99.90
23813;DHT22;12087;45.190;5.688;2023-10-31T08:50:53;11.90;99.90
23813;DHT22;12087;45.190;5.688;2023-10-31T08:56:15;11.90;99.90
23813;DHT22;12087;45.190;5.688;2023-10-31T09:01:37;11.90;99.90
23813;DHT22;12087;45.190;5.688;2023-10-31T09:07:01;11.90;99.90
23813;DHT22;12087;45.190;5.688;2023-10-31T09:12:23;12.00;99.90
23813;DHT22;12087;45.190;5.688;2023-10-31T09:17:46;12.10;99.90
23813;DHT22;12087;45.190;5.688;2023-10-31T09:23:10;12.10;99.90
23813;DHT22;12087;45.190;5.688;2023-10-31T09:28:32;12.30;99.90
23813;DHT22;12087;45.190;5.688;2023-10-31T09:33:54;12.30;99.90
23813;DHT22;12087;45.190;5.688;2023-10-31T09:39:18;12.30;99.90
23813;DHT22;12087;45.190;5.688;2023-10-31T09:44:40;12.40;99.90
23813;DHT22;12087;45.190;5.688;2023-10-31T09:50:02;12.50;99.90
23813;DHT22;12087;45.190;5.688;2023-10-31T09:55:26;12.50;99.90
23813;DHT22;12087;45.190;5.688;2023-10-31T10:00:48;12.50;99.90
23813;DHT22;12087;45.190;5.688;2023-10-31T10:06:11;12.50;99.90
23813;DHT22;12087;45.190;5.688;2023-10-31T10:11:34;12.60;99.90
23813;DHT22;12087;45.190;5.688;2023-10-31T10:16:57;12.70;99.90
23813;DHT22;12087;45.190;5.688;2023-10-31T10:22:20;12.80;99.90
23813;DHT22;12087;45.190;5.688;2023-10-31T10:27:44;12.80;99.90
23813;DHT22;12087;45.190;5.688;2023-10-31T10:33:06;12.80;99.90
23813;DHT22;12087;45.190;5.688;2023-10-31T10:38:31;12.90;99.90
23813;DHT22;12087;45.190;5.688;2023-10-31T10:43:57;13.00;99.90
23813;DHT22;12087;45.190;5.688;2023-10-31T10:49:27;13.00;99.90
23813;DHT22;12087;45.190;5.688;2023-10-31T10:54:54;13.10;99.90
23813;DHT22;12087;45.190;5.688;2023-10-31T11:00:21;13.10;99.90
23813;DHT22;12087;45.190;5.688;2023-10-31T11:05:46;13.20;99.90
23813;DHT22;12087;45.190;5.688;2023-10-31T11:11:08;13.20;99.90
23813;DHT22;12087;45.190;5.688;2023-10-31T11:16:37;13.30;99.90
23813;DHT22;12087;45.190;5.688;2023-10-31T11:22:02;13.40;99.90
23813;DHT22;12087;45.190;5.688;2023-10-31T11:27:25;13.50;99.90
23813;DHT22;12087;45.190;5.688;2023-10-31T11:32:49;13.60;99.90
23813;DHT22;12087;45.190;5.688;2023-10-31T11:38:13;13.60;99.90
23813;DHT22;12087;45.190;5.688;2023-10-31T11:43:49;13.70;99.90
23813;DHT22;12087;45.190;5.688;2023-10-31T11:49:13;13.80;99.90
23813;DHT22;12087;45.190;5.688;2023-10-31T11:54:35;13.90;99.90
23813;DHT22;12087;45.190;5.688;2023-10-31T11:59:58;14.00;99.90
23813;DHT22;12087;45.190;5.688;2023-10-31T12:05:21;14.00;99.90
23813;DHT22;12087;45.190;5.688;2023-10-31T12:10:43;14.00;99.90
23813;DHT22;12087;45.190;5.688;2023-10-31T12:16:07;14.10;99.90
23813;DHT22;12087;45.190;5.688;2023-10-31T12:21:41;14.10;99.90
23813;DHT22;12087;45.190;5.688;2023-10-31T12:27:04;14.10;99.90
23813;DHT22;12087;45.190;5.688;2023-10-31T12:32:26;14.20;99.90
23813;DHT22;12087;45.190;5.688;2023-10-31T12:37:50;14.40;99.90
23813;DHT22;12087;45.190;5.688;2023-10-31T12:43:13;14.40;99.90
23813;DHT22;12087;45.190;5.688;2023-10-31T12:48:37;14.40;99.90
23813;DHT22;12087;45.190;5.688;2023-10-31T12:54:01;14.40;99.90
23813;DHT22;12087;45.190;5.688;2023-10-31T12:59:24;14.40;99.90
23813;DHT22;12087;45.190;5.688;2023-10-31T13:04:46;14.40;99.90
23813;DHT22;12087;45.190;5.688;2023-10-31T13:10:10;14.80;99.90
23813;DHT22;12087;45.190;5.688;2023-10-31T13:15:32;14.90;99.90
23813;DHT22;12087;45.190;5.688;2023-10-31T13:20:57;15.10;99.90
23813;DHT22;12087;45.190;5.688;2023-10-31T13:26:20;15.30;99.90
23813;DHT22;12087;45.190;5.688;2023-10-31T13:31:43;15.40;99.90
23813;DHT22;12087;45.190;5.688;2023-10-31T13:37:05;15.70;99.90
23813;DHT22;12087;45.190;5.688;2023-10-31T13:42:30;15.70;99.90
23813;DHT22;12087;45.190;5.688;2023-10-31T13:47:52;15.70;99.90
23813;DHT22;12087;45.190;5.688;2023-10-31T13:53:15;15.70;99.90
23813;DHT22;12087;45.190;5.688;2023-10-31T13:58:38;15.90;99.90
23813;DHT22;12087;45.190;5.688;2023-10-31T14:04:01;16.20;99.90
23813;DHT22;12087;45.190;5.688;2023-10-31T14:09:23;16.30;99.90
23813;DHT22;12087;45.190;5.688;2023-10-31T14:14:47;16.60;99.90
23813;DHT22;12087;45.190;5.688;2023-10-31T14:20:10;16.40;99.90
23813;DHT22;12087;45.190;5.688;2023-10-31T14:25:33;16.30;99.90
23813;DHT22;12087;45.190;5.688;2023-10-31T14:30:56;16.30;99.90
23813;DHT22;12087;45.190;5.688;2023-10-31T14:36:19;16.20;99.90
23813;DHT22;12087;45.190;5.688;2023-10-31T14:41:41;16.10;99.90
23813;DHT22;12087;45.190;5.688;2023-10-31T14:47:05;16.00;99.90
23813;DHT22;12087;45.190;5.688;2023-10-31T14:52:27;15.90;99.90
23813;DHT22;12087;45.190;5.688;2023-10-31T14:57:50;15.80;99.90
23813;DHT22;12087;45.190;5.688;2023-10-31T15:03:13;15.80;99.90
23813;DHT22;12087;45.190;5.688;2023-10-31T15:08:35;15.80;99.90
23813;DHT22;12087;45.190;5.688;2023-10-31T15:13:58;15.90;99.90
23813;DHT22;12087;45.190;5.688;2023-10-31T15:19:21;15.80;99.90
23813;DHT22;12087;45.190;5.688;2023-10-31T15:24:44;15.70;99.90
23813;DHT22;12087;45.190;5.688;2023-10-31T15:30:08;15.60;99.90
23813;DHT22;12087;45.190;5.688;2023-10-31T15:35:31;15.50;99.90
23813;DHT22;12087;45.190;5.688;2023-10-31T15:40:54;15.40;99.90
23813;DHT22;12087;45.190;5.688;2023-10-31T15:46:16;15.30;99.90
23813;DHT22;12087;45.190;5.688;2023-10-31T15:51:40;15.20;99.90
23813;DHT22;12087;45.190;5.688;2023-10-31T15:57:02;15.10;99.90
23813;DHT22;12087;45.190;5.688;2023-10-31T16:02:25;14.90;99.90
23813;DHT22;12087;45.190;5.688;2023-10-31T16:07:49;14.80;99.90
23813;DHT22;12087;45.190;5.688;2023-10-31T16:13:11;14.70;99.90
23813;DHT22;12087;45.190;5.688;2023-10-31T16:18:33;14.60;99.90
23813;DHT22;12087;45.190;5.688;2023-10-31T16:23:57;14.50;99.90
23813;DHT22;12087;45.190;5.688;2023-10-31T16:29:19;14.40;99.90
23813;DHT22;12087;45.190;5.688;2023-10-31T16:34:42;14.40;99.90
23813;DHT22;12087;45.190;5.688;2023-10-31T16:40:09;14.40;99.90
23813;DHT22;12087;45.190;5.688;2023-10-31T16:45:32;14.30;99.90
23813;DHT22;12087;45.190;5.688;2023-10-31T16:50:54;14.20;99.90
23813;DHT22;12087;45.190;5.688;2023-10-31T16:56:18;14.20;99.90
23813;DHT22;12087;45.190;5.688;2023-10-31T17:01:42;14.20;99.90
23813;DHT22;12087;45.190;5.688;2023-10-31T17:07:04;14.10;99.90
23813;DHT22;12087;45.190;5.688;2023-10-31T17:12:28;14.00;99.90
23813;DHT22;12087;45.190;5.688;2023-10-31T17:17:50;14.00;99.90
23813;DHT22;12087;45.190;5.688;2023-10-31T17:23:13;13.90;99.90
23813;DHT22;12087;45.190;5.688;2023-10-31T17:28:37;13.90;99.90
23813;DHT22;12087;45.190;5.688;2023-10-31T17:34:01;13.80;99.90
23813;DHT22;12087;45.190;5.688;2023-10-31T17:39:23;13.80;99.90
23813;DHT22;12087;45.190;5.688;2023-10-31T17:44:47;13.70;99.90
23813;DHT22;12087;45.190;5.688;2023-10-31T17:50:10;13.70;99.90
23813;DHT22;12087;45.190;5.688;2023-10-31T17:55:32;13.60;99.90
23813;DHT22;12087;45.190;5.688;2023-10-31T18:00:56;13.60;99.90
23813;DHT22;12087;45.190;5.688;2023-10-31T18:06:18;13.50;99.90
23813;DHT22;12087;45.190;5.688;2023-10-31T18:11:41;13.50;99.90
23813;DHT22;12087;45.190;5.688;2023-10-31T18:17:06;13.40;99.90
23813;DHT22;12087;45.190;5.688;2023-10-31T18:22:29;13.40;99.90
23813;DHT22;12087;45.190;5.688;2023-10-31T18:27:52;13.40;99.90
23813;DHT22;12087;45.190;5.688;2023-10-31T18:33:15;13.30;99.90
23813;DHT22;12087;45.190;5.688;2023-10-31T18:38:38;13.20;99.90
23813;DHT22;12087;45.190;5.688;2023-10-31T18:44:00;13.10;99.90
23813;DHT22;12087;45.190;5.688;2023-10-31T18:49:24;13.10;99.90
23813;DHT22;12087;45.190;5.688;2023-10-31T18:54:47;13.10;99.90
23813;DHT22;12087;45.190;5.688;2023-10-31T19:00:10;13.00;99.90
23813;DHT22;12087;45.190;5.688;2023-10-31T19:05:34;12.90;99.90
23813;DHT22;12087;45.190;5.688;2023-10-31T19:10:56;12.90;99.90
23813;DHT22;12087;45.190;5.688;2023-10-31T19:16:18;12.90;99.90
23813;DHT22;12087;45.190;5.688;2023-10-31T19:21:44;12.80;99.90
23813;DHT22;12087;45.190;5.688;2023-10-31T19:27:06;12.80;99.90
23813;DHT22;12087;45.190;5.688;2023-10-31T19:32:29;12.70;99.90
23813;DHT22;12087;45.190;5.688;2023-10-31T19:37:53;12.70;99.90
23813;DHT22;12087;45.190;5.688;2023-10-31T19:43:17;12.70;99.90
23813;DHT22;12087;45.190;5.688;2023-10-31T19:48:39;12.70;99.90
23813;DHT22;12087;45.190;5.688;2023-10-31T19:54:03;12.60;99.90
23813;DHT22;12087;45.190;5.688;2023-10-31T19:59:25;12.50;99.90
23813;DHT22;12087;45.190;5.688;2023-10-31T20:04:47;12.60;99.90
23813;DHT22;12087;45.190;5.688;2023-10-31T20:10:11;12.60;99.90
23813;DHT22;12087;45.190;5.688;2023-10-31T20:15:33;12.60;99.90
23813;DHT22;12087;45.190;5.688;2023-10-31T20:20:56;12.60;99.90
23813;DHT22;12087;45.190;5.688;2023-10-31T20:26:20;12.60;99.90
23813;DHT22;12087;45.190;5.688;2023-10-31T20:31:42;12.50;99.90
23813;DHT22;12087;45.190;5.688;2023-10-31T20:37:04;12.50;99.90
23813;DHT22;12087;45.190;5.688;2023-10-31T20:42:28;12.50;99.90
23813;DHT22;12087;45.190;5.688;2023-10-31T20:47:51;12.30;99.90
23813;DHT22;12087;45.190;5.688;2023-10-31T20:53:14;12.20;99.90
23813;DHT22;12087;45.190;5.688;2023-10-31T20:58:37;12.20;99.90
23813;DHT22;12087;45.190;5.688;2023-10-31T21:04:00;12.20;99.90
23813;DHT22;12087;45.190;5.688;2023-10-31T21:09:23;12.20;99.90
23813;DHT22;12087;45.190;5.688;2023-10-31T21:14:47;12.10;99.90
23813;DHT22;12087;45.190;5.688;2023-10-31T21:20:10;12.00;99.90
23813;DHT22;12087;45.190;5.688;2023-10-31T21:25:33;12.00;99.90
23813;DHT22;12087;45.190;5.688;2023-10-31T21:30:57;11.90;99.90
23813;DHT22;12087;45.190;5.688;2023-10-31T21:36:19;11.90;99.90
23813;DHT22;12087;45.190;5.688;2023-10-31T21:41:44;11.80;99.90
23813;DHT22;12087;45.190;5.688;2023-10-31T21:47:09;11.80;99.90
23813;DHT22;12087;45.190;5.688;2023-10-31T21:52:31;11.80;99.90
23813;DHT22;12087;45.190;5.688;2023-10-31T21:57:53;11.80;99.90
23813;DHT22;12087;45.190;5.688;2023-10-31T22:03:17;11.70;99.90
23813;DHT22;12087;45.190;5.688;2023-10-31T22:08:39;11.60;99.90
23813;DHT22;12087;45.190;5.688;2023-10-31T22:14:02;11.60;99.90
23813;DHT22;12087;45.190;5.688;2023-10-31T22:19:26;11.70;99.90
23813;DHT22;12087;45.190;5.688;2023-10-31T22:24:48;11.60;99.90
23813;DHT22;12087;45.190;5.688;2023-10-31T22:30:11;11.60;99.90
23813;DHT22;12087;45.190;5.688;2023-10-31T22:35:35;11.50;99.90
23813;DHT22;12087;45.190;5.688;2023-10-31T22:40:57;11.40;99.90
23813;DHT22;12087;45.190;5.688;2023-10-31T22:46:19;11.30;99.90
23813;DHT22;12087;45.190;5.688;2023-10-31T22:51:43;11.30;99.90
23813;DHT22;12087;45.190;5.688;2023-10-31T22:57:05;11.30;99.90
23813;DHT22;12087;45.190;5.688;2023-10-31T23:02:27;11.30;99.90
23813;DHT22;12087;45.190;5.688;2023-10-31T23:07:51;11.40;99.90
23813;DHT22;12087;45.190;5.688;2023-10-31T23:13:14;11.30;99.90
23813;DHT22;12087;45.190;5.688;2023-10-31T23:18:42;11.20;99.90
23813;DHT22;12087;45.190;5.688;2023-10-31T23:24:08;11.10;99.90
23813;DHT22;12087;45.190;5.688;2023-10-31T23:29:30;11.10;99.90
23813;DHT22;12087;45.190;5.688;2023-10-31T23:34:52;11.10;99.90
23813;DHT22;12087;45.190;5.688;2023-10-31T23:40:16;11.10;99.90
23813;DHT22;12087;45.190;5.688;2023-10-31T23:45:38;11.10;99.90
23813;DHT22;12087;45.190;5.688;2023-10-31T23:51:01;11.00;99.90
23813;DHT22;12087;45.190;5.688;2023-10-31T23:56:25;10.90;99.90
